createdAt,value
2022-09-23T00:00:27.300Z,4.57
2022-09-23T00:03:13.418Z,4.47
2022-09-23T00:06:04.398Z,3.80
2022-09-23T00:08:50.609Z,4.00
2022-09-23T00:11:36.475Z,3.93
2022-09-23T00:14:21.739Z,4.40
2022-09-23T00:17:07.326Z,2.77
2022-09-23T00:19:54.198Z,3.40
2022-09-23T00:22:39.935Z,4.13
2022-09-23T00:25:25.314Z,3.30
2022-09-23T00:28:10.636Z,3.80
2022-09-23T00:30:56.396Z,4.30
2022-09-23T00:33:42.289Z,3.13
2022-09-23T00:36:29.142Z,3.50
2022-09-23T00:39:14.840Z,3.50
2022-09-23T00:42:00.128Z,4.20
2022-09-23T00:44:56.209Z,3.97
2022-09-23T00:47:48.177Z,3.23
2022-09-23T00:50:40.329Z,3.50
2022-09-23T00:53:26.765Z,3.77
2022-09-23T00:56:13.982Z,3.77
2022-09-23T00:59:01.209Z,5.27
2022-09-23T01:01:49.715Z,3.30
2022-09-23T01:04:36.622Z,5.03
2022-09-23T01:07:22.029Z,3.00
2022-09-23T01:10:08.836Z,3.17
2022-09-23T01:13:16.042Z,2.93
2022-09-23T01:16:13.440Z,3.80
2022-09-23T01:19:20.428Z,3.73
2022-09-23T01:22:18.602Z,3.47
2022-09-23T01:25:10.073Z,3.30
2022-09-23T01:28:10.813Z,2.47
2022-09-23T01:31:08.517Z,4.23
2022-09-23T01:34:06.708Z,5.20
2022-09-23T01:36:59.343Z,2.70
2022-09-23T01:40:01.835Z,2.60
2022-09-23T01:42:54.027Z,3.27
2022-09-23T01:45:44.360Z,3.20
2022-09-23T01:48:52.573Z,2.97
2022-09-23T01:51:42.754Z,2.77
2022-09-23T01:54:43.908Z,2.27
2022-09-23T01:57:38.984Z,2.97
2022-09-23T02:00:25.581Z,4.43
2022-09-23T02:03:17.799Z,3.57
2022-09-23T02:06:11.334Z,2.60
2022-09-23T02:09:02.048Z,2.97
2022-09-23T02:11:52.518Z,4.43
2022-09-23T02:14:49.001Z,4.20
2022-09-23T02:17:54.327Z,3.37
2022-09-23T02:20:40.247Z,3.47
2022-09-23T02:23:31.895Z,3.03
2022-09-23T02:26:29.543Z,2.50
2022-09-23T02:29:27.542Z,2.40
2022-09-23T02:32:39.085Z,3.50
2022-09-23T02:35:34.716Z,2.90
2022-09-23T02:38:32.189Z,2.50
2022-09-23T02:41:28.141Z,2.90
2022-09-23T02:44:18.642Z,4.37
2022-09-23T02:47:04.020Z,3.27
2022-09-23T02:49:49.417Z,2.23
2022-09-23T02:52:36.732Z,2.77
2022-09-23T02:55:25.451Z,2.57
2022-09-23T02:58:14.063Z,3.63
2022-09-23T03:01:21.814Z,3.60
2022-09-23T03:04:07.117Z,2.50
2022-09-23T03:07:06.330Z,1.90
2022-09-23T03:10:09.636Z,3.83
2022-09-23T03:13:14.700Z,6.18
2022-09-23T03:16:11.902Z,5.63
2022-09-23T03:19:03.761Z,7.13
2022-09-23T03:22:01.027Z,7.00
2022-09-23T03:24:53.297Z,7.47
2022-09-23T03:27:42.405Z,9.33
2022-09-23T03:30:29.902Z,5.47
2022-09-23T03:33:18.647Z,8.60
2022-09-23T03:36:26.917Z,7.07
2022-09-23T03:39:24.174Z,7.60
2022-09-23T03:42:31.813Z,7.73
2022-09-23T03:45:21.971Z,10.37
2022-09-23T03:48:08.752Z,7.57
2022-09-23T03:50:54.292Z,7.60
2022-09-23T03:53:39.756Z,8.27
2022-09-23T03:56:25.061Z,8.50
2022-09-23T03:59:12.038Z,9.17
2022-09-23T04:01:59.813Z,8.80
2022-09-23T04:04:45.652Z,6.57
2022-09-23T04:07:31.449Z,6.97
2022-09-23T04:10:16.683Z,6.70
2022-09-23T04:13:01.912Z,9.33
2022-09-23T04:15:50.083Z,7.30
2022-09-23T04:18:35.435Z,8.63
2022-09-23T04:21:21.338Z,10.03
2022-09-23T04:24:08.008Z,7.50
2022-09-23T04:26:55.412Z,8.07
2022-09-23T04:29:40.942Z,6.67
2022-09-23T04:32:26.285Z,7.37
2022-09-23T04:35:11.504Z,6.47
2022-09-23T04:37:56.894Z,5.37
2022-09-23T04:40:42.113Z,7.43
2022-09-23T04:43:27.387Z,7.10
2022-09-23T04:46:15.083Z,8.47
2022-09-23T04:49:00.700Z,8.37
2022-09-23T04:51:47.613Z,6.73
2022-09-23T04:54:33.096Z,6.87
2022-09-23T04:57:18.775Z,6.43
2022-09-23T05:00:05.422Z,6.00
2022-09-23T05:02:51.352Z,6.50
2022-09-23T05:05:36.632Z,6.83
2022-09-23T05:08:22.162Z,6.87
2022-09-23T05:11:09.249Z,7.60
2022-09-23T05:13:55.107Z,5.30
2022-09-23T05:16:40.907Z,4.20
2022-09-23T05:19:26.365Z,8.10
2022-09-23T05:22:11.787Z,4.53
2022-09-23T05:24:59.851Z,9.83
2022-09-23T05:27:45.072Z,6.03
2022-09-23T05:30:30.415Z,7.90
2022-09-23T05:33:15.516Z,5.37
2022-09-23T05:36:01.491Z,3.80
2022-09-23T05:38:48.640Z,4.17
2022-09-23T05:41:34.100Z,4.47
2022-09-23T05:44:19.643Z,3.83
2022-09-23T05:47:05.503Z,5.37
2022-09-23T05:49:59.673Z,6.40
2022-09-23T05:52:46.088Z,7.10
2022-09-23T05:55:31.546Z,4.97
2022-09-23T05:58:16.943Z,4.60
2022-09-23T06:01:09.551Z,5.20
2022-09-23T06:03:56.398Z,5.23
2022-09-23T06:06:42.735Z,3.60
2022-09-23T06:09:30.825Z,5.07
2022-09-23T06:12:20.090Z,6.17
2022-09-23T06:15:06.312Z,4.57
2022-09-23T06:17:51.432Z,4.70
2022-09-23T06:20:37.430Z,6.57
2022-09-23T06:23:26.630Z,5.93
2022-09-23T06:26:14.252Z,6.50
2022-09-23T06:29:01.593Z,6.03
2022-09-23T06:31:49.753Z,4.93
2022-09-23T06:34:47.442Z,5.13
2022-09-23T06:37:36.066Z,4.53
2022-09-23T06:40:23.086Z,5.20
2022-09-23T06:43:08.600Z,4.10
2022-09-23T06:45:55.981Z,4.50
2022-09-23T06:48:46.144Z,4.47
2022-09-23T06:51:32.211Z,4.07
2022-09-23T06:54:17.744Z,4.23
2022-09-23T06:57:03.054Z,4.20
2022-09-23T06:59:48.306Z,4.37
2022-09-23T07:02:33.753Z,6.30
2022-09-23T07:05:19.044Z,2.97
2022-09-23T07:08:09.738Z,5.17
2022-09-23T07:11:00.151Z,3.63
2022-09-23T07:13:45.961Z,4.10
2022-09-23T07:16:32.895Z,3.20
2022-09-23T07:19:18.279Z,5.57
2022-09-23T07:22:03.775Z,7.27
2022-09-23T07:24:49.095Z,7.10
2022-09-23T07:27:34.377Z,4.30
2022-09-23T07:30:25.125Z,4.40
2022-09-23T07:33:27.083Z,4.13
2022-09-23T07:36:18.728Z,3.67
2022-09-23T07:39:04.035Z,4.10
2022-09-23T07:41:49.799Z,4.27
2022-09-23T07:44:35.645Z,4.53
2022-09-23T07:47:21.272Z,3.70
2022-09-23T07:50:11.536Z,4.83
2022-09-23T07:52:57.189Z,4.27
2022-09-23T07:55:42.362Z,7.87
2022-09-23T07:58:27.791Z,2.60
2022-09-23T08:01:13.766Z,3.47
2022-09-23T08:04:06.931Z,3.47
2022-09-23T08:06:55.417Z,2.75
2022-09-23T08:09:43.364Z,2.83
2022-09-23T08:12:32.154Z,3.63
2022-09-23T08:15:17.694Z,4.07
2022-09-23T08:18:03.224Z,3.53
2022-09-23T08:20:48.463Z,3.70
2022-09-23T08:23:33.969Z,4.20
2022-09-23T08:26:22.067Z,4.97
2022-09-23T08:29:10.202Z,4.03
2022-09-23T08:31:56.390Z,4.33
2022-09-23T08:34:42.543Z,6.40
2022-09-23T08:37:27.880Z,3.00
2022-09-23T08:40:13.779Z,4.53
2022-09-23T08:43:00.140Z,3.33
2022-09-23T08:45:46.352Z,4.07
2022-09-23T08:48:42.266Z,3.87
2022-09-23T08:51:41.298Z,5.80
2022-09-23T08:54:31.202Z,3.87
2022-09-23T08:57:34.043Z,3.37
2022-09-23T09:00:28.682Z,3.40
2022-09-23T09:03:24.829Z,2.73
2022-09-23T09:06:19.092Z,3.57
2022-09-23T09:09:09.471Z,4.57
2022-09-23T09:12:05.120Z,2.63
2022-09-23T09:14:57.109Z,3.93
2022-09-23T09:18:11.313Z,4.07
2022-09-23T09:20:59.889Z,2.85
2022-09-23T09:24:02.515Z,3.87
2022-09-23T09:26:48.093Z,2.67
2022-09-23T09:29:39.651Z,3.60
2022-09-23T09:32:47.314Z,3.67
2022-09-23T09:35:40.853Z,2.90
2022-09-23T09:38:27.583Z,2.17
2022-09-23T09:41:18.291Z,4.03
2022-09-23T09:44:21.147Z,2.43
2022-09-23T09:47:17.291Z,3.85
2022-09-23T09:50:08.531Z,2.33
2022-09-23T09:53:21.855Z,4.57
2022-09-23T09:56:16.546Z,2.27
2022-09-23T09:59:10.944Z,2.03
2022-09-23T10:02:21.574Z,2.27
2022-09-23T10:05:07.629Z,2.60
2022-09-23T10:07:54.449Z,2.23
2022-09-23T10:10:54.612Z,2.57
2022-09-23T10:13:39.718Z,2.37
2022-09-23T10:16:25.420Z,2.73
2022-09-23T10:19:27.745Z,2.43
2022-09-23T10:22:21.017Z,2.93
2022-09-23T10:25:36.536Z,1.65
2022-09-23T10:28:44.118Z,2.57
2022-09-23T10:31:32.317Z,2.13
2022-09-23T10:34:29.227Z,4.57
2022-09-23T10:37:32.275Z,2.77
2022-09-23T10:40:49.126Z,2.47
2022-09-23T10:44:11.453Z,2.80
2022-09-23T10:47:20.782Z,1.80
2022-09-23T10:50:23.760Z,2.80
2022-09-23T10:53:18.304Z,3.00
2022-09-23T10:56:06.642Z,2.37
2022-09-23T10:58:52.049Z,4.70
2022-09-23T11:02:02.119Z,3.37
2022-09-23T11:04:52.844Z,2.10
2022-09-23T11:08:18.333Z,3.37
2022-09-23T11:11:11.715Z,2.03
2022-09-23T11:14:24.460Z,3.67
2022-09-23T11:17:22.261Z,2.88
2022-09-23T11:20:31.646Z,3.13
2022-09-23T11:23:26.536Z,4.67
2022-09-23T11:26:33.260Z,3.80
2022-09-23T11:29:30.961Z,3.40
2022-09-23T11:32:39.668Z,4.53
2022-09-23T11:35:38.099Z,2.70
2022-09-23T11:38:45.861Z,4.13
2022-09-23T11:41:35.402Z,2.27
2022-09-23T11:44:29.406Z,3.40
2022-09-23T11:47:27.453Z,2.90
2022-09-23T11:50:25.909Z,2.33
2022-09-23T11:53:40.641Z,4.73
2022-09-23T11:56:49.267Z,2.77
2022-09-23T11:59:42.831Z,2.57
2022-09-23T12:02:33.625Z,3.10
2022-09-23T12:05:24.508Z,3.63
2022-09-23T12:08:23.314Z,2.17
2022-09-23T12:11:20.708Z,4.23
2022-09-23T12:14:23.808Z,2.30
2022-09-23T12:17:15.640Z,2.30
2022-09-23T12:20:19.492Z,2.93
2022-09-23T12:23:23.702Z,3.00
2022-09-23T12:26:17.276Z,6.67
2022-09-23T12:29:05.667Z,4.00
2022-09-23T12:31:51.166Z,3.77
2022-09-23T12:34:49.129Z,3.03
2022-09-23T12:37:38.992Z,5.37
2022-09-23T12:40:34.677Z,2.97
2022-09-23T12:43:34.920Z,3.10
2022-09-23T12:46:28.148Z,3.67
2022-09-23T12:49:37.229Z,4.43
2022-09-23T12:52:25.360Z,3.80
2022-09-23T12:55:23.272Z,4.03
2022-09-23T12:58:57.611Z,2.87
2022-09-23T13:01:44.382Z,3.35
2022-09-23T13:05:05.477Z,3.67
2022-09-23T13:07:51.056Z,3.57
2022-09-23T13:10:54.674Z,4.23
2022-09-23T13:13:45.730Z,6.45
2022-09-23T13:16:34.930Z,5.13
2022-09-23T13:19:40.950Z,8.27
2022-09-23T13:22:54.306Z,3.57
2022-09-23T13:25:43.693Z,7.05
2022-09-23T13:28:34.033Z,3.80
2022-09-23T13:31:21.249Z,5.83
2022-09-23T13:34:11.502Z,5.27
2022-09-23T13:36:56.754Z,5.23
2022-09-23T13:39:42.038Z,5.07
2022-09-23T13:42:30.255Z,4.63
2022-09-23T13:45:19.158Z,5.50
2022-09-23T13:48:08.429Z,4.40
2022-09-23T13:50:54.703Z,2.93
2022-09-23T13:53:40.411Z,3.77
2022-09-23T13:56:28.531Z,3.57
2022-09-23T13:59:30.229Z,3.90
2022-09-23T14:02:18.783Z,4.20
2022-09-23T14:05:12.550Z,5.40
2022-09-23T14:07:59.661Z,5.87
2022-09-23T14:10:48.099Z,4.20
2022-09-23T14:13:42.568Z,5.63
2022-09-23T14:16:29.892Z,4.07
2022-09-23T14:19:20.768Z,4.20
2022-09-23T14:22:09.249Z,5.13
2022-09-23T14:24:59.019Z,3.50
2022-09-23T14:27:47.165Z,4.70
2022-09-23T14:30:32.659Z,5.20
2022-09-23T14:33:23.468Z,3.40
2022-09-23T14:36:34.603Z,4.33
2022-09-23T14:39:20.389Z,4.73
2022-09-23T14:42:07.327Z,5.97
2022-09-23T14:44:52.874Z,5.03
2022-09-23T14:47:42.015Z,9.60
2022-09-23T14:50:37.992Z,5.60
2022-09-23T14:53:23.222Z,7.83
2022-09-23T14:56:11.450Z,7.20
2022-09-23T14:59:00.011Z,9.77
2022-09-23T15:01:45.751Z,6.67
2022-09-23T15:04:32.604Z,7.80
2022-09-23T15:07:20.823Z,8.17
2022-09-23T15:10:37.577Z,5.87
2022-09-23T15:13:36.760Z,7.30
2022-09-23T15:16:27.597Z,7.67
2022-09-23T15:19:19.859Z,5.07
2022-09-23T15:22:08.529Z,6.20
2022-09-23T15:25:08.311Z,6.70
2022-09-23T15:27:58.045Z,6.33
2022-09-23T15:30:43.631Z,9.77
2022-09-23T15:33:29.926Z,8.90
2022-09-23T15:36:19.518Z,6.20
2022-09-23T15:39:08.592Z,7.63
2022-09-23T15:41:53.810Z,7.47
2022-09-23T15:44:39.562Z,7.37
2022-09-23T15:47:25.354Z,6.63
2022-09-23T15:50:13.629Z,4.60
2022-09-23T15:52:59.500Z,6.43
2022-09-23T15:55:45.442Z,5.33
2022-09-23T15:58:30.927Z,7.10
2022-09-23T16:01:37.166Z,7.87
2022-09-23T16:04:23.029Z,5.63
2022-09-23T16:07:16.223Z,5.63
2022-09-23T16:10:01.440Z,4.93
2022-09-23T16:12:47.426Z,6.27
2022-09-23T16:15:33.772Z,7.33
2022-09-23T16:18:19.280Z,9.53
2022-09-23T16:21:06.473Z,13.37
2022-09-23T16:23:53.490Z,11.37
2022-09-23T16:26:40.544Z,7.43
2022-09-23T16:29:27.020Z,10.43
2022-09-23T16:32:12.834Z,8.67
2022-09-23T16:34:58.536Z,4.20
2022-09-23T16:37:47.021Z,6.60
2022-09-23T16:40:32.678Z,6.43
2022-09-23T16:43:19.567Z,6.70
2022-09-23T16:46:12.184Z,11.53
2022-09-23T16:48:58.989Z,5.37
2022-09-23T16:51:44.293Z,9.23
2022-09-23T16:54:29.970Z,8.17
2022-09-23T16:57:15.547Z,8.57
2022-09-23T17:00:19.414Z,10.47
2022-09-23T17:08:58.898Z,11.97
2022-09-23T17:11:48.239Z,13.83
2022-09-23T17:14:35.086Z,6.23
2022-09-23T17:17:21.837Z,8.90
2022-09-23T17:20:09.359Z,7.60
2022-09-23T17:22:56.250Z,8.90
2022-09-23T17:25:47.838Z,8.30
2022-09-23T17:28:35.883Z,11.93
2022-09-23T17:31:25.128Z,9.40
2022-09-23T17:34:12.978Z,8.20
2022-09-23T17:37:05.781Z,11.23
2022-09-23T17:39:52.307Z,9.88
2022-09-23T17:42:41.720Z,9.27
2022-09-23T17:45:29.428Z,8.43
2022-09-23T17:48:20.393Z,8.43
2022-09-23T17:51:14.437Z,8.63
2022-09-23T17:53:59.798Z,10.03
2022-09-23T17:56:46.587Z,8.57
2022-09-23T17:59:31.991Z,9.00
2022-09-23T18:02:20.927Z,9.67
2022-09-23T18:05:06.641Z,9.27
2022-09-23T18:07:52.101Z,9.13
2022-09-23T18:10:37.380Z,7.43
2022-09-23T18:13:23.691Z,9.83
2022-09-23T18:16:10.264Z,12.90
2022-09-23T18:18:58.195Z,12.30
2022-09-23T18:21:51.750Z,11.90
2022-09-23T18:27:26.716Z,9.20
2022-09-23T18:30:12.800Z,7.80
2022-09-23T18:32:59.792Z,7.13
2022-09-23T18:35:45.299Z,5.67
2022-09-23T18:38:30.733Z,6.67
2022-09-23T18:41:16.916Z,9.27
2022-09-23T18:44:04.576Z,8.93
2022-09-23T18:46:55.656Z,11.53
2022-09-23T18:50:03.102Z,8.07
2022-09-23T18:52:53.586Z,7.67
2022-09-23T18:55:40.835Z,6.93
2022-09-23T18:58:26.488Z,5.53
2022-09-23T19:01:12.777Z,7.47
2022-09-23T19:04:00.337Z,9.73
2022-09-23T19:06:46.745Z,6.30
2022-09-23T19:09:32.188Z,5.47
2022-09-23T19:12:18.198Z,6.47
2022-09-23T19:15:04.938Z,8.00
2022-09-23T19:17:50.531Z,7.00
2022-09-23T19:20:36.269Z,7.77
2022-09-23T19:23:21.851Z,10.37
2022-09-23T19:26:12.913Z,5.90
2022-09-23T19:29:00.417Z,8.00
2022-09-23T19:31:45.915Z,6.57
2022-09-23T19:34:32.513Z,6.37
2022-09-23T19:37:18.373Z,8.80
2022-09-23T19:40:04.659Z,7.73
2022-09-23T19:42:55.090Z,5.50
2022-09-23T19:45:42.962Z,6.50
2022-09-23T19:48:28.517Z,6.00
2022-09-23T19:51:14.203Z,5.40
2022-09-23T19:54:01.200Z,6.67
2022-09-23T19:56:48.710Z,5.00
2022-09-23T19:59:34.252Z,7.40
2022-09-23T20:02:19.818Z,6.67
2022-09-23T20:05:06.104Z,5.70
2022-09-23T20:07:52.007Z,6.30
2022-09-23T20:10:39.738Z,6.60
2022-09-23T20:13:25.101Z,7.10
2022-09-23T20:16:14.178Z,7.30
2022-09-23T20:19:00.841Z,8.53
2022-09-23T20:22:05.856Z,5.03
2022-09-23T20:24:58.798Z,7.87
2022-09-23T20:27:49.464Z,9.40
2022-09-23T20:30:38.654Z,7.57
2022-09-23T20:33:24.206Z,6.37
2022-09-23T20:36:12.924Z,10.53
2022-09-23T20:39:00.511Z,8.77
2022-09-23T20:41:46.129Z,9.73
2022-09-23T20:44:32.094Z,7.53
2022-09-23T20:47:18.633Z,7.60
2022-09-23T20:50:04.219Z,7.43
2022-09-23T20:52:49.694Z,7.50
2022-09-23T20:55:35.040Z,6.20
2022-09-23T20:58:26.978Z,7.27
2022-09-23T21:01:12.366Z,7.43
2022-09-23T21:03:57.593Z,6.87
2022-09-23T21:06:42.952Z,8.63
2022-09-23T21:09:30.941Z,7.30
2022-09-23T21:12:16.487Z,7.27
2022-09-23T21:15:02.482Z,6.27
2022-09-23T21:17:47.614Z,6.90
2022-09-23T21:20:33.040Z,6.57
2022-09-23T21:23:18.484Z,6.00
2022-09-23T21:26:06.638Z,6.90
2022-09-23T21:28:58.302Z,6.30
2022-09-23T21:31:43.883Z,6.90
2022-09-23T21:34:30.094Z,6.57
2022-09-23T21:37:15.298Z,7.50
2022-09-23T21:40:19.193Z,8.10
2022-09-23T21:43:04.277Z,7.25
2022-09-23T21:45:56.963Z,5.87
2022-09-23T21:48:43.204Z,7.80
2022-09-23T21:51:30.808Z,7.07
2022-09-23T21:54:17.060Z,7.73
2022-09-23T21:57:02.251Z,7.53
2022-09-23T21:59:48.032Z,6.50
2022-09-23T22:02:33.836Z,6.23
2022-09-23T22:05:19.586Z,5.77
2022-09-23T22:08:05.240Z,5.73
2022-09-23T22:10:50.461Z,7.73
2022-09-23T22:13:35.757Z,6.20
2022-09-23T22:16:20.979Z,5.80
2022-09-23T22:19:07.158Z,5.67
2022-09-23T22:21:53.696Z,6.23
2022-09-23T22:24:44.176Z,5.30
2022-09-23T22:27:29.907Z,7.57
2022-09-23T22:30:33.832Z,5.97
2022-09-23T22:33:18.985Z,5.07
2022-09-23T22:36:04.473Z,6.17
2022-09-23T22:38:59.041Z,5.83
2022-09-23T22:41:44.852Z,5.43
2022-09-23T22:44:30.642Z,5.57
2022-09-23T22:47:20.209Z,6.53
2022-09-23T22:50:08.208Z,4.97
2022-09-23T22:52:53.558Z,6.30
2022-09-23T22:55:38.733Z,6.30
2022-09-23T22:58:32.097Z,5.77
2022-09-23T23:01:18.027Z,6.10
2022-09-23T23:04:04.182Z,4.60
2022-09-23T23:06:49.908Z,5.93
2022-09-23T23:09:35.527Z,5.20
2022-09-23T23:12:21.311Z,4.97
2022-09-23T23:15:09.331Z,5.23
2022-09-23T23:17:59.253Z,6.70
2022-09-23T23:20:45.630Z,5.87
2022-09-23T23:23:31.097Z,4.73
2022-09-23T23:26:22.253Z,5.53
2022-09-23T23:29:07.291Z,5.17
2022-09-23T23:31:52.556Z,4.30
2022-09-23T23:34:37.757Z,5.17
2022-09-23T23:37:22.919Z,4.53
2022-09-23T23:40:08.644Z,5.43
2022-09-23T23:42:54.458Z,4.23
2022-09-23T23:45:39.970Z,5.77
2022-09-23T23:48:25.725Z,4.20
2022-09-23T23:51:11.685Z,4.50
2022-09-23T23:53:59.675Z,6.10
2022-09-23T23:56:45.181Z,5.27
2022-09-23T23:59:31.092Z,4.40
